Time,TemperatureF,DewpointF,PressureIn,WindDirection,WindDirectionDegrees,WindSpeedMPH,WindSpeedGustMPH,Humidity,HourlyPrecipIn,Conditions,Clouds,dailyrainin,SoftwareType,DateUTC
2013-01-24 00:01:00,-23.1,-26.1,29.90,NNE,22,1.7,-999.0,85,-99.99,,,0.00,Acu-Link.com,2013-01-24 05:01:00,
2013-01-24 00:18:00,-22.9,-25.9,29.90,NNE,22,2.2,-999.0,85,-99.99,,,0.00,Acu-Link.com,2013-01-24 05:18:00,
2013-01-24 00:33:00,-22.9,-25.9,29.89,North,0,1.1,-999.0,85,-99.99,,,0.00,Acu-Link.com,2013-01-24 05:33:00,
2013-01-24 00:49:00,-22.7,-25.5,29.88,NNE,22,2.2,-999.0,86,-99.99,,,0.00,Acu-Link.com,2013-01-24 05:49:00,
2013-01-24 01:04:00,-22.9,-26.2,29.89,NNW,337,1.7,-999.0,84,-99.99,,,0.00,Acu-Link.com,2013-01-24 06:04:00,
2013-01-24 01:19:00,-22.7,-26.0,29.89,NNW,337,2.7,-999.0,84,-99.99,,,0.00,Acu-Link.com,2013-01-24 06:19:00,
2013-01-24 01:34:00,-21.8,-24.9,29.88,NW,315,1.7,-999.0,85,-99.99,,,0.00,Acu-Link.com,2013-01-24 06:34:00,
2013-01-24 01:49:00,-21.1,-24.4,29.89,SW,225,5.8,-999.0,84,-99.99,,,0.00,Acu-Link.com,2013-01-24 06:49:00,
2013-01-24 02:05:00,-19.8,-23.1,29.89,NNW,337,3.2,-999.0,84,-99.99,,,0.00,Acu-Link.com,2013-01-24 07:05:00,
2013-01-24 02:20:00,-19.7,-23.2,29.89,NNW,337,2.7,-999.0,83,-99.99,,,0.00,Acu-Link.com,2013-01-24 07:20:00,
2013-01-24 02:35:00,-19.1,-22.6,29.88,NNW,337,1.1,-999.0,83,-99.99,,,0.00,Acu-Link.com,2013-01-24 07:35:00,
2013-01-24 02:50:00,-19.5,-23.0,29.88,South,180,1.7,-999.0,83,-99.99,,,0.00,Acu-Link.com,2013-01-24 07:50:00,
2013-01-24 03:05:00,-19.1,-22.6,29.88,WSW,247,2.2,-999.0,83,-99.99,,,0.00,Acu-Link.com,2013-01-24 08:05:00,
2013-01-24 03:21:00,-19.8,-23.3,29.88,North,0,2.7,-999.0,83,-99.99,,,0.00,Acu-Link.com,2013-01-24 08:21:00,
2013-01-24 03:36:00,-20.0,-23.5,29.88,NE,45,1.7,-999.0,83,-99.99,,,0.00,Acu-Link.com,2013-01-24 08:36:00,
2013-01-24 03:51:00,-20.7,-24.2,29.88,North,0,0.0,-999.0,83,-99.99,,,0.00,Acu-Link.com,2013-01-24 08:51:00,
2013-01-24 04:16:00,-21.3,-24.8,29.88,NE,45,1.7,-999.0,83,-99.99,,,0.00,Acu-Link.com,2013-01-24 09:16:00,
2013-01-24 04:31:00,-21.5,-24.8,29.88,NNE,22,1.7,-999.0,84,-99.99,,,0.00,Acu-Link.com,2013-01-24 09:31:00,
2013-01-24 04:47:00,-21.6,-24.7,29.87,ENE,67,1.7,-999.0,85,-99.99,,,0.00,Acu-Link.com,2013-01-24 09:47:00,
2013-01-24 05:02:00,-21.8,-24.9,29.87,WSW,247,1.7,-999.0,85,-99.99,,,0.00,Acu-Link.com,2013-01-24 10:02:00,
2013-01-24 05:17:00,-22.2,-25.5,29.87,NNW,337,1.7,-999.0,84,-99.99,,,0.00,Acu-Link.com,2013-01-24 10:17:00,
2013-01-24 05:32:00,-21.1,-23.9,29.87,West,270,3.7,-999.0,86,-99.99,,,0.00,Acu-Link.com,2013-01-24 10:32:00,
2013-01-24 05:47:00,-19.7,-22.6,29.87,West,270,2.7,-999.0,86,-99.99,,,0.00,Acu-Link.com,2013-01-24 10:47:00,
2013-01-24 06:02:00,-19.8,-23.1,29.87,North,0,2.2,-999.0,84,-99.99,,,0.00,Acu-Link.com,2013-01-24 11:02:00,
2013-01-24 06:18:00,-20.2,-23.5,29.88,NNW,337,2.2,-999.0,84,-99.99,,,0.00,Acu-Link.com,2013-01-24 11:18:00,
2013-01-24 06:33:00,-20.6,-23.9,29.87,NNE,22,2.7,-999.0,84,-99.99,,,0.00,Acu-Link.com,2013-01-24 11:33:00,
2013-01-24 06:48:00,-20.7,-24.0,29.88,North,0,1.7,-999.0,84,-99.99,,,0.00,Acu-Link.com,2013-01-24 11:48:00,
2013-01-24 07:03:00,-20.9,-24.2,29.88,NNE,22,2.2,-999.0,84,-99.99,,,0.00,Acu-Link.com,2013-01-24 12:03:00,
2013-01-24 07:18:00,-21.3,-24.8,29.88,WNW,292,2.2,-999.0,83,-99.99,,,0.00,Acu-Link.com,2013-01-24 12:18:00,
2013-01-24 07:34:00,-19.8,-23.1,29.89,North,0,2.7,-999.0,84,-99.99,,,0.00,Acu-Link.com,2013-01-24 12:34:00,
2013-01-24 07:49:00,-19.3,-22.6,29.90,ENE,67,3.2,-999.0,84,-99.99,,,0.00,Acu-Link.com,2013-01-24 12:49:00,
2013-01-24 08:04:00,-17.3,-20.7,29.89,West,270,3.2,-999.0,84,-99.99,,,0.00,Acu-Link.com,2013-01-24 13:04:00,
2013-01-24 08:19:00,-15.0,-19.1,29.89,SW,225,1.1,-999.0,81,-99.99,,,0.00,Acu-Link.com,2013-01-24 13:19:00,
2013-01-24 08:35:00,-13.7,-18.3,29.89,WSW,247,4.7,-999.0,79,-99.99,,,0.00,Acu-Link.com,2013-01-24 13:35:00,
2013-01-24 08:50:00,-12.8,-17.9,29.89,WSW,247,10.9,-999.0,77,-99.99,,,0.00,Acu-Link.com,2013-01-24 13:50:00,
2013-01-24 09:05:00,-12.5,-18.1,29.89,WSW,247,3.7,-999.0,75,-99.99,,,0.00,Acu-Link.com,2013-01-24 14:05:00,
2013-01-24 09:20:00,-11.2,-17.4,29.90,West,270,9.4,-999.0,73,-99.99,,,0.00,Acu-Link.com,2013-01-24 14:20:00,
2013-01-24 09:35:00,-9.2,-16.6,29.89,WNW,292,2.7,-999.0,69,-99.99,,,0.00,Acu-Link.com,2013-01-24 14:35:00,
2013-01-24 09:51:00,-5.1,-14.4,29.89,WNW,292,4.7,-999.0,63,-99.99,,,0.00,Acu-Link.com,2013-01-24 14:51:00,
2013-01-24 10:06:00,-7.2,-16.1,29.88,NW,315,7.8,-999.0,64,-99.99,,,0.00,Acu-Link.com,2013-01-24 15:06:00,
2013-01-24 10:21:00,-5.3,-15.6,29.88,WNW,292,4.2,-999.0,60,-99.99,,,0.00,Acu-Link.com,2013-01-24 15:21:00,
2013-01-24 10:36:00,-4.5,-15.8,29.88,West,270,15.0,-999.0,57,-99.99,,,0.00,Acu-Link.com,2013-01-24 15:36:00,
2013-01-24 10:51:00,-4.0,-16.0,29.86,West,270,6.8,-999.0,55,-99.99,,,0.00,Acu-Link.com,2013-01-24 15:51:00,
2013-01-24 11:07:00,-1.8,-15.1,29.86,West,270,14.0,-999.0,52,-99.99,,,0.00,Acu-Link.com,2013-01-24 16:07:00,
2013-01-24 11:22:00,-1.7,-15.4,29.85,WSW,247,9.4,-999.0,51,-99.99,,,0.00,Acu-Link.com,2013-01-24 16:22:00,
2013-01-24 11:37:00,-3.5,-15.6,29.86,WNW,292,8.9,-999.0,55,-99.99,,,0.00,Acu-Link.com,2013-01-24 16:37:00,
2013-01-24 11:52:00,-4.9,-15.9,29.86,SW,225,8.3,-999.0,58,-99.99,,,0.00,Acu-Link.com,2013-01-24 16:52:00,
2013-01-24 12:08:00,-2.4,-14.9,29.86,SW,225,9.4,-999.0,54,-99.99,,,0.00,Acu-Link.com,2013-01-24 17:08:00,
2013-01-24 12:23:00,-2.4,-15.6,29.85,SW,225,10.4,-999.0,52,-99.99,,,0.00,Acu-Link.com,2013-01-24 17:23:00,
2013-01-24 12:38:00,-1.8,-14.3,29.84,WSW,247,13.0,-999.0,54,-99.99,,,0.00,Acu-Link.com,2013-01-24 17:38:00,
2013-01-24 12:53:00,-2.9,-15.0,29.83,NW,315,8.9,-999.0,55,-99.99,,,0.00,Acu-Link.com,2013-01-24 17:53:00,
2013-01-24 13:08:00,-3.3,-14.7,29.81,West,270,15.5,-999.0,57,-99.99,,,0.00,Acu-Link.com,2013-01-24 18:08:00,
2013-01-24 13:24:00,-2.6,-14.4,29.81,West,270,14.0,-999.0,56,-99.99,,,0.00,Acu-Link.com,2013-01-24 18:24:00,
2013-01-24 13:39:00,-1.8,-13.6,29.82,NNW,337,16.1,-999.0,56,-99.99,,,0.00,Acu-Link.com,2013-01-24 18:39:00,
2013-01-24 13:54:00,-2.0,-13.5,29.83,WNW,292,10.9,-999.0,57,-99.99,,,0.00,Acu-Link.com,2013-01-24 18:54:00,
2013-01-24 14:09:00,-2.7,-14.1,29.83,NW,315,10.4,-999.0,57,-99.99,,,0.00,Acu-Link.com,2013-01-24 19:09:00,
2013-01-24 14:25:00,-2.7,-14.1,29.84,WSW,247,9.4,-999.0,57,-99.99,,,0.00,Acu-Link.com,2013-01-24 19:25:00,
2013-01-24 14:40:00,-2.9,-13.6,29.85,WNW,292,8.9,-999.0,59,-99.99,,,0.00,Acu-Link.com,2013-01-24 19:40:00,
2013-01-24 14:55:00,-4.0,-13.7,29.86,SSW,202,11.4,-999.0,62,-99.99,,,0.00,Acu-Link.com,2013-01-24 19:55:00,
2013-01-24 15:10:00,-5.6,-13.1,29.86,North,0,6.8,-999.0,69,-99.99,,,0.00,Acu-Link.com,2013-01-24 20:10:00,
2013-01-24 15:25:00,-6.0,-12.1,29.86,WSW,247,10.9,-999.0,74,-99.99,,,0.00,Acu-Link.com,2013-01-24 20:25:00,
2013-01-24 15:41:00,-6.5,-11.8,29.86,WSW,247,23.3,-999.0,77,-99.99,,,0.00,Acu-Link.com,2013-01-24 20:41:00,
2013-01-24 15:56:00,-7.4,-12.2,29.88,NNW,337,13.5,-999.0,79,-99.99,,,0.00,Acu-Link.com,2013-01-24 20:56:00,
2013-01-24 16:11:00,-8.0,-12.5,29.89,West,270,8.9,-999.0,80,-99.99,,,0.00,Acu-Link.com,2013-01-24 21:11:00,
2013-01-24 16:27:00,-8.5,-13.0,29.91,WSW,247,16.1,-999.0,80,-99.99,,,0.00,Acu-Link.com,2013-01-24 21:27:00,
2013-01-24 16:42:00,-8.9,-13.1,29.91,West,270,13.5,-999.0,81,-99.99,,,0.00,Acu-Link.com,2013-01-24 21:42:00,
2013-01-24 16:57:00,-9.0,-13.0,29.92,NNE,22,6.8,-999.0,82,-99.99,,,0.00,Acu-Link.com,2013-01-24 21:57:00,
2013-01-24 17:12:00,-9.0,-13.2,29.93,WNW,292,6.3,-999.0,81,-99.99,,,0.00,Acu-Link.com,2013-01-24 22:12:00,
2013-01-24 17:27:00,-9.0,-13.2,29.93,West,270,7.3,-999.0,81,-99.99,,,0.00,Acu-Link.com,2013-01-24 22:27:00,
2013-01-24 17:43:00,-9.0,-13.0,29.93,West,270,6.3,-999.0,82,-99.99,,,0.00,Acu-Link.com,2013-01-24 22:43:00,
2013-01-24 17:58:00,-9.0,-13.0,29.94,WSW,247,8.9,-999.0,82,-99.99,,,0.00,Acu-Link.com,2013-01-24 22:58:00,
2013-01-24 18:13:00,-8.9,-12.9,29.94,WSW,247,10.4,-999.0,82,-99.99,,,0.00,Acu-Link.com,2013-01-24 23:13:00,
2013-01-24 18:28:00,-8.7,-12.7,29.95,SW,225,9.4,-999.0,82,-99.99,,,0.00,Acu-Link.com,2013-01-24 23:28:00,
2013-01-24 18:44:00,-8.7,-12.4,29.94,WSW,247,10.4,-999.0,83,-99.99,,,0.00,Acu-Link.com,2013-01-24 23:44:00,
2013-01-24 18:59:00,-8.5,-12.2,29.96,WSW,247,10.9,-999.0,83,-99.99,,,0.00,Acu-Link.com,2013-01-24 23:59:00,
2013-01-24 19:14:00,-8.5,-12.5,29.98,WSW,247,13.5,-999.0,82,-99.99,,,0.00,Acu-Link.com,2013-01-25 00:14:00,
2013-01-24 19:29:00,-8.3,-12.3,29.98,WSW,247,9.9,-999.0,82,-99.99,,,0.00,Acu-Link.com,2013-01-25 00:29:00,
2013-01-24 19:44:00,-8.3,-12.3,30.00,WSW,247,7.3,-999.0,82,-99.99,,,0.00,Acu-Link.com,2013-01-25 00:44:00,
2013-01-24 20:00:00,-8.3,-12.1,29.99,West,270,5.3,-999.0,83,-99.99,,,0.00,Acu-Link.com,2013-01-25 01:00:00,
2013-01-24 20:15:00,-8.3,-12.1,30.00,WSW,247,6.3,-999.0,83,-99.99,,,0.00,Acu-Link.com,2013-01-25 01:15:00,
2013-01-24 20:30:00,-8.1,-11.9,30.00,SSW,202,4.7,-999.0,83,-99.99,,,0.00,Acu-Link.com,2013-01-25 01:30:00,
2013-01-24 20:45:00,-8.1,-11.9,30.02,NNW,337,9.9,-999.0,83,-99.99,,,0.00,Acu-Link.com,2013-01-25 01:45:00,
2013-01-24 21:00:00,-8.1,-11.9,30.01,West,270,6.3,-999.0,83,-99.99,,,0.00,Acu-Link.com,2013-01-25 02:00:00,
2013-01-24 21:16:00,-8.1,-11.9,30.00,West,270,11.4,-999.0,83,-99.99,,,0.00,Acu-Link.com,2013-01-25 02:16:00,
2013-01-24 21:31:00,-8.1,-11.9,30.02,West,270,11.4,-999.0,83,-99.99,,,0.00,Acu-Link.com,2013-01-25 02:31:00,
2013-01-24 21:46:00,-8.1,-11.9,30.02,WSW,247,14.0,-999.0,83,-99.99,,,0.00,Acu-Link.com,2013-01-25 02:46:00,
2013-01-24 22:01:00,-8.1,-11.9,30.03,WSW,247,11.4,-999.0,83,-99.99,,,0.00,Acu-Link.com,2013-01-25 03:01:00,
2013-01-24 22:17:00,-8.1,-11.6,30.03,West,270,15.5,-999.0,84,-99.99,,,0.00,Acu-Link.com,2013-01-25 03:17:00,
2013-01-24 22:32:00,-8.1,-11.9,30.04,NNE,22,7.8,-999.0,83,-99.99,,,0.00,Acu-Link.com,2013-01-25 03:32:00,
2013-01-24 22:47:00,-8.0,-11.8,30.05,West,270,10.4,-999.0,83,-99.99,,,0.00,Acu-Link.com,2013-01-25 03:47:00,
2013-01-24 23:02:00,-8.0,-11.8,30.05,West,270,9.4,-999.0,83,-99.99,,,0.00,Acu-Link.com,2013-01-25 04:02:00,
2013-01-24 23:17:00,-8.0,-11.8,30.06,SW,225,8.9,-999.0,83,-99.99,,,0.00,Acu-Link.com,2013-01-25 04:17:00,
2013-01-24 23:33:00,-8.0,-11.8,30.06,West,270,13.0,-999.0,83,-99.99,,,0.00,Acu-Link.com,2013-01-25 04:33:00,
2013-01-24 23:48:00,-8.0,-11.8,30.06,WNW,292,9.4,-999.0,83,-99.99,,,0.00,Acu-Link.com,2013-01-25 04:48:00,